Gil Vicente — CSKG — position and weather

sailwx.info

Track history (hours):
 
Tides and Currents Weather Stations Pressure Air Temp Water Temp Dewpoint Dewpoint Depression Visibility Wind Speed Wind Dir Waves Ship Positions

Gil Vicente

Last reported at 2014-Nov-01 12:34 UTC. Time now 2014-Nov-01 13:07 UTC.
Position N 38°40' W 009°07'.

Length 49 m.

Type: Passenger vessel. MMSI: 263701390.

Date/timePositionNaut miles runAvg speedWind from/ knotsBaromVisibWave heightAir tempDewpointWater temp
2014-Nov-01 12:34N 38°40' W 009°07'0 0.5
2014-Nov-01 11:33N 38°40' W 009°06'1 0.6
2014-Nov-01 10:33N 38°40' W 009°07'0 0.3
2014-Nov-01 09:34N 38°40' W 009°06'1 0.6
2014-Nov-01 08:33N 38°40' W 009°07'0 0.2
2014-Nov-01 07:33N 38°40' W 009°07'1 0.8
2014-Nov-01 06:33N 38°40' W 009°08'1 1.2
2014-Nov-01 05:34N 38°41' W 009°08'3 0.8
2014-Nov-01 02:15N 38°39' W 009°06'1 1.0
2014-Nov-01 01:33N 38°39' W 009°05'0 0.0
2014-Nov-01 00:33N 38°39' W 009°05'0 0.4
2014-Oct-31 23:34N 38°39' W 009°05'1 1.3
2014-Oct-31 22:34N 38°40' W 009°07'0 0.2
2014-Oct-31 21:33N 38°40' W 009°07'2 1.6
2014-Oct-31 20:33N 38°39' W 009°05'0 0.0
2014-Oct-31 19:33N 38°39' W 009°05'1 0.8
2014-Oct-31 18:33N 38°39' W 009°06'3 3.4
2014-Oct-31 17:33N 38°42' W 009°08'4 1.0
2014-Oct-31 13:32N 38°39' W 009°05'1 1.5
2014-Oct-31 12:33N 38°40' W 009°06'0 0.5
2014-Oct-31 11:33N 38°40' W 009°06'1 1.0
2014-Oct-31 10:33N 38°39' W 009°05'0 0.0
2014-Oct-31 09:33N 38°39' W 009°05'0 0.1
2014-Oct-31 08:34N 38°39' W 009°05'1 0.8
2014-Oct-31 07:33N 38°39' W 009°06'1 0.1
2014-Oct-30 21:13N 38°39' W 009°05'4 5.4
2014-Oct-30 20:34N 38°42' W 009°08'3 2.8
2014-Oct-30 19:33N 38°39' W 009°06'3 2.9
2014-Oct-30 18:34N 38°42' W 009°08'1 0.7
2014-Oct-30 17:34N 38°42' W 009°08'1 0.9
2014-Oct-30 16:33N 38°42' W 009°07'3 3.2
2014-Oct-30 15:34N 38°39' W 009°05'2 2.3
2014-Oct-30 14:33N 38°40' W 009°07'1 0.9
2014-Oct-30 13:34N 38°40' W 009°06'0 0.0
2014-Oct-30 12:33N 38°40' W 009°06'0 0.3
2014-Oct-30 11:34N 38°40' W 009°06'1 1.1
2014-Oct-30 10:33N 38°39' W 009°05'0 0.0
2014-Oct-30 09:33N 38°39' W 009°05'0 0.0
2014-Oct-30 08:33N 38°39' W 009°05'1 0.7
2014-Oct-30 07:34N 38°39' W 009°06'1 0.6
2014-Oct-30 06:33N 38°39' W 009°05'0 0.0
2014-Oct-29 21:30N 38°39' W 009°05'0 0.0
2014-Oct-29 20:33N 38°39' W 009°05'3 3.5
2014-Oct-29 19:33N 38°42' W 009°08'1 1.5
2014-Oct-29 18:33N 38°40' W 009°07'2 2.3
2014-Oct-29 17:33N 38°39' W 009°05'0 0.0
2014-Oct-29 16:34N 38°39' W 009°05'0 0.0
2014-Oct-29 15:33N 38°39' W 009°05'0 0.0
2014-Oct-29 11:26N 38°39' W 009°05'2 1.8
2014-Oct-29 10:34N 38°40' W 009°07'1 0.9
2014-Oct-29 09:33N 38°39' W 009°06'3 2.9
2014-Oct-29 08:33N 38°42' W 009°08'1 0.7
2014-Oct-29 07:34N 38°42' W 009°08'1 0.0
2014-Oct-28 20:33N 38°42' W 009°08'1 0.5
2014-Oct-28 19:33N 38°42' W 009°08'1 1.1
2014-Oct-28 18:33N 38°41' W 009°08'3 2.8
2014-Oct-28 17:34N 38°39' W 009°05'3 3.3
2014-Oct-28 16:34N 38°42' W 009°08'1 1.2
2014-Oct-28 15:33N 38°41' W 009°08'0 0.2
2014-Oct-28 14:33N 38°41' W 009°08'0 0.2
2014-Oct-28 13:33N 38°41' W 009°08'0 0.1
2014-Oct-28 12:33N 38°41' W 009°08'0 0.0
2014-Oct-28 11:33N 38°41' W 009°08'3 2.8
2014-Oct-28 10:34N 38°39' W 009°05'2 2.2
2014-Oct-28 09:33N 38°40' W 009°07'2 2.3
2014-Oct-28 08:33N 38°42' W 009°08'1 1.2
2014-Oct-28 07:34N 38°41' W 009°08'3 3.0
2014-Oct-28 06:33N 38°39' W 009°05'4 0.3
2014-Oct-27 19:33N 38°42' W 009°08'0 0.4
2014-Oct-27 18:34N 38°42' W 009°08'2 2.3
2014-Oct-27 17:34N 38°40' W 009°07'2 1.7
2014-Oct-27 16:33N 38°39' W 009°06'1 0.9
2014-Oct-27 15:33N 38°40' W 009°06'2 0.3
2014-Oct-27 10:20N 38°39' W 009°05'2 2.0
2014-Oct-27 09:33N 38°40' W 009°06'0 0.4
2014-Oct-27 08:34N 38°40' W 009°07'2 2.0
2014-Oct-27 07:33N 38°39' W 009°05'0 0.0
2014-Oct-27 06:33N 38°39' W 009°05'0 0.0
2014-Oct-27 05:33N 38°39' W 009°05'0 0.0
2014-Oct-27 04:33N 38°39' W 009°05'0 0.0
2014-Oct-27 03:33N 38°39' W 009°05'0 0.0
2014-Oct-27 02:33N 38°39' W 009°05'0 0.0
2014-Oct-27 01:33N 38°39' W 009°05'0 0.0
2014-Oct-27 00:33N 38°39' W 009°05'3 1.0
2014-Oct-26 21:33N 38°41' W 009°08'3 2.9
2014-Oct-26 20:34N 38°39' W 009°05'2 1.9
2014-Oct-26 19:33N 38°40' W 009°07'0 0.2
2014-Oct-26 18:33N 38°40' W 009°07'0 0.0
2014-Oct-26 17:33N 38°40' W 009°07'0 0.0
2014-Oct-26 16:34N 38°40' W 009°07'0 0.3
2014-Oct-26 15:34N 38°40' W 009°06'0 0.4
2014-Oct-26 14:34N 38°40' W 009°07'0 0.0
2014-Oct-26 13:34N 38°40' W 009°07'2 0.3
2014-Oct-26 07:34N 38°39' W 009°05'1 0.7
2014-Oct-26 06:33N 38°39' W 009°06'1 0.7
2014-Oct-26 05:33N 38°39' W 009°05'0 0.0
2014-Oct-24 20:27N 38°39' W 009°05'3 3.7
2014-Oct-24 19:34N 38°41' W 009°08'2 2.2
2014-Oct-24 18:33N 38°40' W 009°06'3 2.8
2014-Oct-24 17:33N 38°42' W 009°08'0 0.4
2014-Oct-24 16:33N 38°42' W 009°08'1 0.9
2014-Oct-24 15:33N 38°42' W 009°08'3 3.3
2014-Oct-24 14:33N 38°39' W 009°05'2 1.8
2014-Oct-24 13:34N 38°40' W 009°07'0 0.5
2014-Oct-24 12:33N 38°40' W 009°06'1 1.2
2014-Oct-24 11:34N 38°39' W 009°05'0 0.0
2014-Oct-24 10:34N 38°39' W 009°05'3 3.1
2014-Oct-24 09:34N 38°41' W 009°08'3 3.2
2014-Oct-24 08:34N 38°39' W 009°05'1 1.2
2014-Oct-24 07:34N 38°40' W 009°06'3 2.8
2014-Oct-24 06:34N 38°42' W 009°08'0 0.3
2014-Oct-24 05:33N 38°42' W 009°08'0 0.0
2014-Oct-24 04:34N 38°42' W 009°08'4 4.2
2014-Oct-24 03:33N 38°39' W 009°05'0 0.0
2014-Oct-24 02:33N 38°39' W 009°05'0 0.0
2014-Oct-24 01:33N 38°39' W 009°05'0 0.5
2014-Oct-24 00:34N 38°39' W 009°05'0 0.1
2014-Oct-23 23:33N 38°39' W 009°05'0 0.1
2014-Oct-23 22:33N 38°39' W 009°05'1 0.9
2014-Oct-23 21:33N 38°40' W 009°06'0 0.2
2014-Oct-23 20:34N 38°40' W 009°06'1 1.4
2014-Oct-23 19:33N 38°39' W 009°05'0 0.0
2014-Oct-23 18:33N 38°39' W 009°05'1 1.3
2014-Oct-23 17:34N 38°40' W 009°06'3 2.7
2014-Oct-23 16:34N 38°42' W 009°08'4 3.7
2014-Oct-23 15:33N 38°39' W 009°05'0 0.0
2014-Oct-23 08:20N 38°39' W 009°05'0 0.1
2014-Oct-23 07:33N 38°39' W 009°05'0 0.2
2014-Oct-23 06:33N 38°39' W 009°05'0 0.1
2014-Oct-23 05:33N 38°39' W 009°05'0 0.0
2014-Oct-22 20:05N 38°39' W 009°05'4 7.4
2014-Oct-22 19:34N 38°42' W 009°08'0 0.3
2014-Oct-22 18:33N 38°42' W 009°08'1 0.8
2014-Oct-22 17:34N 38°42' W 009°08'3 3.2
2014-Oct-22 16:29N 38°39' W 009°05'4 4.4
2014-Oct-22 15:33N 38°42' W 009°08'1 1.4
2014-Oct-22 14:33N 38°41' W 009°08'0 0.1
2014-Oct-22 13:33N 38°41' W 009°08'  
Track history (hours):
 
Tides and Currents Weather Stations Pressure Air Temp Water Temp Dewpoint Dewpoint Depression Visibility Wind Speed Wind Dir Waves Ship Positions

Gil Vicente

Last reported at 2014-Nov-01 12:34 UTC. Time now 2014-Nov-01 13:07 UTC.
Position N 38°40' W 009°07'.

Length 49 m.

Type: Passenger vessel. MMSI: 263701390.

Date/timePositionNaut miles runAvg speedWind from/ knotsBaromVisibWave heightAir tempDewpointWater temp
2014-Nov-01 12:34N 38°40' W 009°07'0 0.5
2014-Nov-01 11:33N 38°40' W 009°06'1 0.6
2014-Nov-01 10:33N 38°40' W 009°07'0 0.3
2014-Nov-01 09:34N 38°40' W 009°06'1 0.6
2014-Nov-01 08:33N 38°40' W 009°07'0 0.2
2014-Nov-01 07:33N 38°40' W 009°07'1 0.8
2014-Nov-01 06:33N 38°40' W 009°08'1 1.2
2014-Nov-01 05:34N 38°41' W 009°08'3 0.8
2014-Nov-01 02:15N 38°39' W 009°06'1 1.0
2014-Nov-01 01:33N 38°39' W 009°05'0 0.0
2014-Nov-01 00:33N 38°39' W 009°05'0 0.4
2014-Oct-31 23:34N 38°39' W 009°05'1 1.3
2014-Oct-31 22:34N 38°40' W 009°07'0 0.2
2014-Oct-31 21:33N 38°40' W 009°07'2 1.6
2014-Oct-31 20:33N 38°39' W 009°05'0 0.0
2014-Oct-31 19:33N 38°39' W 009°05'1 0.8
2014-Oct-31 18:33N 38°39' W 009°06'3 3.4
2014-Oct-31 17:33N 38°42' W 009°08'4 1.0
2014-Oct-31 13:32N 38°39' W 009°05'1 1.5
2014-Oct-31 12:33N 38°40' W 009°06'0 0.5
2014-Oct-31 11:33N 38°40' W 009°06'1 1.0
2014-Oct-31 10:33N 38°39' W 009°05'0 0.0
2014-Oct-31 09:33N 38°39' W 009°05'0 0.1
2014-Oct-31 08:34N 38°39' W 009°05'1 0.8
2014-Oct-31 07:33N 38°39' W 009°06'1 0.1
2014-Oct-30 21:13N 38°39' W 009°05'4 5.4
2014-Oct-30 20:34N 38°42' W 009°08'3 2.8
2014-Oct-30 19:33N 38°39' W 009°06'3 2.9
2014-Oct-30 18:34N 38°42' W 009°08'1 0.7
2014-Oct-30 17:34N 38°42' W 009°08'1 0.9
2014-Oct-30 16:33N 38°42' W 009°07'3 3.2
2014-Oct-30 15:34N 38°39' W 009°05'2 2.3
2014-Oct-30 14:33N 38°40' W 009°07'1 0.9
2014-Oct-30 13:34N 38°40' W 009°06'0 0.0
2014-Oct-30 12:33N 38°40' W 009°06'0 0.3
2014-Oct-30 11:34N 38°40' W 009°06'1 1.1
2014-Oct-30 10:33N 38°39' W 009°05'0 0.0
2014-Oct-30 09:33N 38°39' W 009°05'0 0.0
2014-Oct-30 08:33N 38°39' W 009°05'1 0.7
2014-Oct-30 07:34N 38°39' W 009°06'1 0.6
2014-Oct-30 06:33N 38°39' W 009°05'0 0.0
2014-Oct-29 21:30N 38°39' W 009°05'0 0.0
2014-Oct-29 20:33N 38°39' W 009°05'3 3.5
2014-Oct-29 19:33N 38°42' W 009°08'1 1.5
2014-Oct-29 18:33N 38°40' W 009°07'2 2.3
2014-Oct-29 17:33N 38°39' W 009°05'0 0.0
2014-Oct-29 16:34N 38°39' W 009°05'0 0.0
2014-Oct-29 15:33N 38°39' W 009°05'0 0.0
2014-Oct-29 11:26N 38°39' W 009°05'2 1.8
2014-Oct-29 10:34N 38°40' W 009°07'1 0.9
2014-Oct-29 09:33N 38°39' W 009°06'3 2.9
2014-Oct-29 08:33N 38°42' W 009°08'1 0.7
2014-Oct-29 07:34N 38°42' W 009°08'1 0.0
2014-Oct-28 20:33N 38°42' W 009°08'1 0.5
2014-Oct-28 19:33N 38°42' W 009°08'1 1.1
2014-Oct-28 18:33N 38°41' W 009°08'3 2.8
2014-Oct-28 17:34N 38°39' W 009°05'3 3.3
2014-Oct-28 16:34N 38°42' W 009°08'1 1.2
2014-Oct-28 15:33N 38°41' W 009°08'0 0.2
2014-Oct-28 14:33N 38°41' W 009°08'0 0.2
2014-Oct-28 13:33N 38°41' W 009°08'0 0.1
2014-Oct-28 12:33N 38°41' W 009°08'0 0.0
2014-Oct-28 11:33N 38°41' W 009°08'3 2.8
2014-Oct-28 10:34N 38°39' W 009°05'2 2.2
2014-Oct-28 09:33N 38°40' W 009°07'2 2.3
2014-Oct-28 08:33N 38°42' W 009°08'1 1.2
2014-Oct-28 07:34N 38°41' W 009°08'3 3.0
2014-Oct-28 06:33N 38°39' W 009°05'4 0.3
2014-Oct-27 19:33N 38°42' W 009°08'0 0.4
2014-Oct-27 18:34N 38°42' W 009°08'2 2.3
2014-Oct-27 17:34N 38°40' W 009°07'2 1.7
2014-Oct-27 16:33N 38°39' W 009°06'1 0.9
2014-Oct-27 15:33N 38°40' W 009°06'2 0.3
2014-Oct-27 10:20N 38°39' W 009°05'2 2.0
2014-Oct-27 09:33N 38°40' W 009°06'0 0.4
2014-Oct-27 08:34N 38°40' W 009°07'2 2.0
2014-Oct-27 07:33N 38°39' W 009°05'0 0.0
2014-Oct-27 06:33N 38°39' W 009°05'0 0.0
2014-Oct-27 05:33N 38°39' W 009°05'0 0.0
2014-Oct-27 04:33N 38°39' W 009°05'0 0.0
2014-Oct-27 03:33N 38°39' W 009°05'0 0.0
2014-Oct-27 02:33N 38°39' W 009°05'0 0.0
2014-Oct-27 01:33N 38°39' W 009°05'0 0.0
2014-Oct-27 00:33N 38°39' W 009°05'3 1.0
2014-Oct-26 21:33N 38°41' W 009°08'3 2.9
2014-Oct-26 20:34N 38°39' W 009°05'2 1.9
2014-Oct-26 19:33N 38°40' W 009°07'0 0.2
2014-Oct-26 18:33N 38°40' W 009°07'0 0.0
2014-Oct-26 17:33N 38°40' W 009°07'0 0.0
2014-Oct-26 16:34N 38°40' W 009°07'0 0.3
2014-Oct-26 15:34N 38°40' W 009°06'0 0.4
2014-Oct-26 14:34N 38°40' W 009°07'0 0.0
2014-Oct-26 13:34N 38°40' W 009°07'2 0.3
2014-Oct-26 07:34N 38°39' W 009°05'1 0.7
2014-Oct-26 06:33N 38°39' W 009°06'1 0.7
2014-Oct-26 05:33N 38°39' W 009°05'0 0.0
2014-Oct-24 20:27N 38°39' W 009°05'3 3.7
2014-Oct-24 19:34N 38°41' W 009°08'2 2.2
2014-Oct-24 18:33N 38°40' W 009°06'3 2.8
2014-Oct-24 17:33N 38°42' W 009°08'0 0.4
2014-Oct-24 16:33N 38°42' W 009°08'1 0.9
2014-Oct-24 15:33N 38°42' W 009°08'3 3.3
2014-Oct-24 14:33N 38°39' W 009°05'2 1.8
2014-Oct-24 13:34N 38°40' W 009°07'0 0.5
2014-Oct-24 12:33N 38°40' W 009°06'1 1.2
2014-Oct-24 11:34N 38°39' W 009°05'0 0.0
2014-Oct-24 10:34N 38°39' W 009°05'3 3.1
2014-Oct-24 09:34N 38°41' W 009°08'3 3.2
2014-Oct-24 08:34N 38°39' W 009°05'1 1.2
2014-Oct-24 07:34N 38°40' W 009°06'3 2.8
2014-Oct-24 06:34N 38°42' W 009°08'0 0.3
2014-Oct-24 05:33N 38°42' W 009°08'0 0.0
2014-Oct-24 04:34N 38°42' W 009°08'4 4.2
2014-Oct-24 03:33N 38°39' W 009°05'0 0.0
2014-Oct-24 02:33N 38°39' W 009°05'0 0.0
2014-Oct-24 01:33N 38°39' W 009°05'0 0.5
2014-Oct-24 00:34N 38°39' W 009°05'0 0.1
2014-Oct-23 23:33N 38°39' W 009°05'0 0.1
2014-Oct-23 22:33N 38°39' W 009°05'1 0.9
2014-Oct-23 21:33N 38°40' W 009°06'0 0.2
2014-Oct-23 20:34N 38°40' W 009°06'1 1.4
2014-Oct-23 19:33N 38°39' W 009°05'0 0.0
2014-Oct-23 18:33N 38°39' W 009°05'1 1.3
2014-Oct-23 17:34N 38°40' W 009°06'3 2.7
2014-Oct-23 16:34N 38°42' W 009°08'4 3.7
2014-Oct-23 15:33N 38°39' W 009°05'0 0.0
2014-Oct-23 08:20N 38°39' W 009°05'0 0.1
2014-Oct-23 07:33N 38°39' W 009°05'0 0.2
2014-Oct-23 06:33N 38°39' W 009°05'0 0.1
2014-Oct-23 05:33N 38°39' W 009°05'0 0.0
2014-Oct-22 20:05N 38°39' W 009°05'4 7.4
2014-Oct-22 19:34N 38°42' W 009°08'0 0.3
2014-Oct-22 18:33N 38°42' W 009°08'1 0.8
2014-Oct-22 17:34N 38°42' W 009°08'3 3.2
2014-Oct-22 16:29N 38°39' W 009°05'4 4.4
2014-Oct-22 15:33N 38°42' W 009°08'1 1.4
2014-Oct-22 14:33N 38°41' W 009°08'0 0.1
2014-Oct-22 13:33N 38°41' W 009°08'  

Dump ship's entire track history